sensor_id;sensor_type;location;lat;lon;timestamp;P1;durP1;ratioP1;P2;durP2;ratioP2
46971;SDS011;32722;43.486;2.766;2022-08-05T00:02:03;8.55;;;6.70;;
46971;SDS011;32722;43.486;2.766;2022-08-05T00:04:29;7.45;;;6.85;;
46971;SDS011;32722;43.486;2.766;2022-08-05T00:06:55;7.38;;;6.68;;
46971;SDS011;32722;43.486;2.766;2022-08-05T00:09:22;7.95;;;7.30;;
46971;SDS011;32722;43.486;2.766;2022-08-05T00:11:48;7.85;;;7.18;;
46971;SDS011;32722;43.486;2.766;2022-08-05T00:14:14;8.18;;;7.38;;
46971;SDS011;32722;43.486;2.766;2022-08-05T00:16:40;7.72;;;7.13;;
46971;SDS011;32722;43.486;2.766;2022-08-05T00:19:06;7.47;;;6.78;;
46971;SDS011;32722;43.486;2.766;2022-08-05T00:21:33;8.50;;;7.70;;
46971;SDS011;32722;43.486;2.766;2022-08-05T00:23:59;8.38;;;7.47;;
46971;SDS011;32722;43.486;2.766;2022-08-05T00:26:25;7.78;;;7.07;;
46971;SDS011;32722;43.486;2.766;2022-08-05T00:28:53;7.78;;;7.07;;
46971;SDS011;32722;43.486;2.766;2022-08-05T00:31:20;8.98;;;7.47;;
46971;SDS011;32722;43.486;2.766;2022-08-05T00:33:46;8.40;;;7.60;;
46971;SDS011;32722;43.486;2.766;2022-08-05T00:36:14;8.98;;;7.93;;
46971;SDS011;32722;43.486;2.766;2022-08-05T00:38:40;8.50;;;7.57;;
46971;SDS011;32722;43.486;2.766;2022-08-05T00:41:08;8.60;;;7.80;;
46971;SDS011;32722;43.486;2.766;2022-08-05T00:43:34;7.70;;;7.00;;
46971;SDS011;32722;43.486;2.766;2022-08-05T00:46:01;8.40;;;7.65;;
46971;SDS011;32722;43.486;2.766;2022-08-05T00:48:29;8.25;;;7.50;;
46971;SDS011;32722;43.486;2.766;2022-08-05T00:50:55;8.10;;;7.40;;
46971;SDS011;32722;43.486;2.766;2022-08-05T00:53:22;8.18;;;7.47;;
46971;SDS011;32722;43.486;2.766;2022-08-05T00:55:48;9.98;;;7.40;;
46971;SDS011;32722;43.486;2.766;2022-08-05T00:58:14;9.13;;;7.65;;
46971;SDS011;32722;43.486;2.766;2022-08-05T01:00:41;9.93;;;7.70;;
46971;SDS011;32722;43.486;2.766;2022-08-05T01:03:08;8.90;;;8.10;;
46971;SDS011;32722;43.486;2.766;2022-08-05T01:05:34;9.07;;;8.20;;
46971;SDS011;32722;43.486;2.766;2022-08-05T01:08:01;9.02;;;8.23;;
46971;SDS011;32722;43.486;2.766;2022-08-05T01:10:28;8.15;;;7.35;;
46971;SDS011;32722;43.486;2.766;2022-08-05T01:12:57;8.85;;;7.50;;
46971;SDS011;32722;43.486;2.766;2022-08-05T01:15:26;10.90;;;7.95;;
46971;SDS011;32722;43.486;2.766;2022-08-05T01:17:55;9.05;;;7.55;;
46971;SDS011;32722;43.486;2.766;2022-08-05T01:22:55;8.07;;;7.35;;
46971;SDS011;32722;43.486;2.766;2022-08-05T01:25:28;8.23;;;7.38;;
46971;SDS011;32722;43.486;2.766;2022-08-05T01:28:12;8.07;;;7.28;;
46971;SDS011;32722;43.486;2.766;2022-08-05T01:30:43;8.30;;;7.50;;
46971;SDS011;32722;43.486;2.766;2022-08-05T01:33:13;8.85;;;7.85;;
46971;SDS011;32722;43.486;2.766;2022-08-05T01:35:40;9.25;;;8.35;;
46971;SDS011;32722;43.486;2.766;2022-08-05T01:38:07;8.15;;;7.43;;
46971;SDS011;32722;43.486;2.766;2022-08-05T01:40:34;7.95;;;7.20;;
46971;SDS011;32722;43.486;2.766;2022-08-05T01:43:02;8.75;;;7.72;;
46971;SDS011;32722;43.486;2.766;2022-08-05T01:45:28;9.93;;;7.45;;
46971;SDS011;32722;43.486;2.766;2022-08-05T01:47:58;8.52;;;7.57;;
46971;SDS011;32722;43.486;2.766;2022-08-05T01:50:31;8.48;;;7.70;;
46971;SDS011;32722;43.486;2.766;2022-08-05T01:53:06;9.02;;;7.93;;
46971;SDS011;32722;43.486;2.766;2022-08-05T01:55:34;8.88;;;8.07;;
46971;SDS011;32722;43.486;2.766;2022-08-05T01:58:06;9.15;;;7.85;;
46971;SDS011;32722;43.486;2.766;2022-08-05T02:00:35;8.60;;;7.80;;
46971;SDS011;32722;43.486;2.766;2022-08-05T02:03:11;8.32;;;7.50;;
46971;SDS011;32722;43.486;2.766;2022-08-05T02:05:37;8.77;;;7.88;;
46971;SDS011;32722;43.486;2.766;2022-08-05T02:08:05;8.07;;;7.38;;
46971;SDS011;32722;43.486;2.766;2022-08-05T02:10:35;8.20;;;7.35;;
46971;SDS011;32722;43.486;2.766;2022-08-05T02:15:40;9.23;;;8.27;;
46971;SDS011;32722;43.486;2.766;2022-08-05T02:23:28;9.60;;;8.55;;
46971;SDS011;32722;43.486;2.766;2022-08-05T02:25:56;8.95;;;8.05;;
46971;SDS011;32722;43.486;2.766;2022-08-05T02:28:23;9.50;;;8.50;;
46971;SDS011;32722;43.486;2.766;2022-08-05T02:30:55;10.27;;;8.18;;
46971;SDS011;32722;43.486;2.766;2022-08-05T02:33:23;9.23;;;8.30;;
46971;SDS011;32722;43.486;2.766;2022-08-05T02:35:50;8.85;;;8.05;;
46971;SDS011;32722;43.486;2.766;2022-08-05T02:38:18;8.73;;;7.65;;
46971;SDS011;32722;43.486;2.766;2022-08-05T02:40:44;9.07;;;8.18;;
46971;SDS011;32722;43.486;2.766;2022-08-05T02:43:11;11.52;;;8.45;;
46971;SDS011;32722;43.486;2.766;2022-08-05T02:45:39;9.38;;;8.52;;
46971;SDS011;32722;43.486;2.766;2022-08-05T02:48:05;8.50;;;7.80;;
46971;SDS011;32722;43.486;2.766;2022-08-05T02:50:32;9.75;;;8.45;;
46971;SDS011;32722;43.486;2.766;2022-08-05T02:52:58;10.75;;;8.45;;
46971;SDS011;32722;43.486;2.766;2022-08-05T02:55:24;9.02;;;8.13;;
46971;SDS011;32722;43.486;2.766;2022-08-05T02:57:51;9.63;;;8.60;;
46971;SDS011;32722;43.486;2.766;2022-08-05T03:00:17;10.77;;;8.52;;
46971;SDS011;32722;43.486;2.766;2022-08-05T03:02:44;8.98;;;8.07;;
46971;SDS011;32722;43.486;2.766;2022-08-05T03:05:12;9.68;;;8.75;;
46971;SDS011;32722;43.486;2.766;2022-08-05T03:07:39;9.55;;;8.45;;
46971;SDS011;32722;43.486;2.766;2022-08-05T03:10:06;10.38;;;8.88;;
46971;SDS011;32722;43.486;2.766;2022-08-05T03:12:34;9.75;;;8.77;;
46971;SDS011;32722;43.486;2.766;2022-08-05T03:15:00;10.75;;;9.13;;
46971;SDS011;32722;43.486;2.766;2022-08-05T03:17:26;10.95;;;8.70;;
46971;SDS011;32722;43.486;2.766;2022-08-05T03:19:52;11.90;;;9.32;;
46971;SDS011;32722;43.486;2.766;2022-08-05T03:22:19;9.93;;;9.02;;
46971;SDS011;32722;43.486;2.766;2022-08-05T03:24:46;9.52;;;8.63;;
46971;SDS011;32722;43.486;2.766;2022-08-05T03:27:12;10.15;;;9.15;;
46971;SDS011;32722;43.486;2.766;2022-08-05T03:29:39;9.95;;;8.85;;
46971;SDS011;32722;43.486;2.766;2022-08-05T03:32:08;11.98;;;9.20;;
46971;SDS011;32722;43.486;2.766;2022-08-05T03:34:34;9.85;;;8.57;;
46971;SDS011;32722;43.486;2.766;2022-08-05T03:37:01;10.00;;;9.13;;
46971;SDS011;32722;43.486;2.766;2022-08-05T03:39:27;10.23;;;8.30;;
46971;SDS011;32722;43.486;2.766;2022-08-05T03:41:54;10.23;;;8.90;;
46971;SDS011;32722;43.486;2.766;2022-08-05T03:44:20;11.00;;;8.93;;
46971;SDS011;32722;43.486;2.766;2022-08-05T03:46:47;11.18;;;8.30;;
46971;SDS011;32722;43.486;2.766;2022-08-05T03:49:13;9.98;;;8.38;;
46971;SDS011;32722;43.486;2.766;2022-08-05T03:51:45;10.40;;;9.40;;
46971;SDS011;32722;43.486;2.766;2022-08-05T03:54:16;9.55;;;8.50;;
46971;SDS011;32722;43.486;2.766;2022-08-05T03:56:44;9.27;;;8.47;;
46971;SDS011;32722;43.486;2.766;2022-08-05T03:59:18;9.57;;;8.63;;
46971;SDS011;32722;43.486;2.766;2022-08-05T04:01:46;9.05;;;8.25;;
46971;SDS011;32722;43.486;2.766;2022-08-05T04:04:16;10.50;;;8.95;;
46971;SDS011;32722;43.486;2.766;2022-08-05T04:06:44;14.48;;;9.02;;
46971;SDS011;32722;43.486;2.766;2022-08-05T04:09:10;9.82;;;8.70;;
46971;SDS011;32722;43.486;2.766;2022-08-05T04:11:37;9.30;;;8.40;;
46971;SDS011;32722;43.486;2.766;2022-08-05T04:14:03;10.18;;;8.40;;
46971;SDS011;32722;43.486;2.766;2022-08-05T04:16:31;10.50;;;8.40;;
46971;SDS011;32722;43.486;2.766;2022-08-05T04:18:57;9.73;;;8.73;;
46971;SDS011;32722;43.486;2.766;2022-08-05T04:21:23;10.80;;;8.77;;
46971;SDS011;32722;43.486;2.766;2022-08-05T04:23:49;11.68;;;8.40;;
46971;SDS011;32722;43.486;2.766;2022-08-05T04:26:16;11.13;;;8.90;;
46971;SDS011;32722;43.486;2.766;2022-08-05T04:28:42;10.05;;;8.40;;
46971;SDS011;32722;43.486;2.766;2022-08-05T04:31:08;10.98;;;7.88;;
46971;SDS011;32722;43.486;2.766;2022-08-05T04:33:34;11.50;;;8.10;;
46971;SDS011;32722;43.486;2.766;2022-08-05T04:36:00;12.05;;;7.50;;
46971;SDS011;32722;43.486;2.766;2022-08-05T04:38:26;9.57;;;7.18;;
46971;SDS011;32722;43.486;2.766;2022-08-05T04:40:52;8.45;;;7.15;;
46971;SDS011;32722;43.486;2.766;2022-08-05T04:43:24;12.50;;;6.97;;
46971;SDS011;32722;43.486;2.766;2022-08-05T04:45:50;13.02;;;7.38;;
46971;SDS011;32722;43.486;2.766;2022-08-05T04:48:16;10.23;;;6.15;;
46971;SDS011;32722;43.486;2.766;2022-08-05T04:50:43;13.63;;;6.80;;
46971;SDS011;32722;43.486;2.766;2022-08-05T04:53:10;8.90;;;7.28;;
46971;SDS011;32722;43.486;2.766;2022-08-05T04:55:37;12.82;;;6.70;;
46971;SDS011;32722;43.486;2.766;2022-08-05T04:58:03;9.98;;;6.25;;
46971;SDS011;32722;43.486;2.766;2022-08-05T05:00:33;10.02;;;6.30;;
46971;SDS011;32722;43.486;2.766;2022-08-05T05:02:59;11.25;;;6.13;;
46971;SDS011;32722;43.486;2.766;2022-08-05T05:05:25;10.38;;;5.88;;
46971;SDS011;32722;43.486;2.766;2022-08-05T05:07:52;12.25;;;6.53;;
46971;SDS011;32722;43.486;2.766;2022-08-05T05:10:19;10.10;;;5.75;;
46971;SDS011;32722;43.486;2.766;2022-08-05T05:12:45;10.27;;;5.57;;
46971;SDS011;32722;43.486;2.766;2022-08-05T05:15:11;9.30;;;5.55;;
46971;SDS011;32722;43.486;2.766;2022-08-05T05:17:38;7.97;;;5.90;;
46971;SDS011;32722;43.486;2.766;2022-08-05T05:20:05;9.27;;;5.53;;
46971;SDS011;32722;43.486;2.766;2022-08-05T05:22:34;8.68;;;5.30;;
46971;SDS011;32722;43.486;2.766;2022-08-05T05:25:00;9.10;;;5.28;;
46971;SDS011;32722;43.486;2.766;2022-08-05T05:27:27;8.60;;;5.00;;
46971;SDS011;32722;43.486;2.766;2022-08-05T05:29:53;7.32;;;5.47;;
46971;SDS011;32722;43.486;2.766;2022-08-05T05:32:19;7.78;;;4.82;;
46971;SDS011;32722;43.486;2.766;2022-08-05T05:34:46;9.90;;;5.68;;
46971;SDS011;32722;43.486;2.766;2022-08-05T05:37:12;6.30;;;5.05;;
46971;SDS011;32722;43.486;2.766;2022-08-05T05:39:39;8.55;;;5.40;;
46971;SDS011;32722;43.486;2.766;2022-08-05T05:42:05;7.90;;;5.03;;
46971;SDS011;32722;43.486;2.766;2022-08-05T06:12:56;9.53;;;3.73;;
46971;SDS011;32722;43.486;2.766;2022-08-05T06:18:27;6.45;;;3.47;;
46971;SDS011;32722;43.486;2.766;2022-08-05T06:21:06;7.15;;;3.72;;
46971;SDS011;32722;43.486;2.766;2022-08-05T06:23:32;6.40;;;3.15;;
46971;SDS011;32722;43.486;2.766;2022-08-05T06:26:01;7.25;;;3.55;;
46971;SDS011;32722;43.486;2.766;2022-08-05T06:28:29;5.80;;;3.08;;
46971;SDS011;32722;43.486;2.766;2022-08-05T06:30:55;5.53;;;3.25;;
46971;SDS011;32722;43.486;2.766;2022-08-05T06:33:29;9.73;;;3.55;;
46971;SDS011;32722;43.486;2.766;2022-08-05T06:35:55;3.88;;;3.05;;
46971;SDS011;32722;43.486;2.766;2022-08-05T06:38:24;5.75;;;3.03;;
46971;SDS011;32722;43.486;2.766;2022-08-05T06:40:50;5.93;;;2.45;;
46971;SDS011;32722;43.486;2.766;2022-08-05T06:43:19;5.95;;;3.42;;
46971;SDS011;32722;43.486;2.766;2022-08-05T06:45:45;4.43;;;2.67;;
46971;SDS011;32722;43.486;2.766;2022-08-05T06:48:11;6.22;;;2.67;;
46971;SDS011;32722;43.486;2.766;2022-08-05T06:50:37;5.07;;;2.45;;
46971;SDS011;32722;43.486;2.766;2022-08-05T06:53:03;4.25;;;1.92;;
46971;SDS011;32722;43.486;2.766;2022-08-05T06:55:29;4.07;;;2.58;;
46971;SDS011;32722;43.486;2.766;2022-08-05T06:57:56;6.38;;;2.38;;
46971;SDS011;32722;43.486;2.766;2022-08-05T07:00:22;5.22;;;2.47;;
46971;SDS011;32722;43.486;2.766;2022-08-05T07:02:49;4.88;;;2.50;;
46971;SDS011;32722;43.486;2.766;2022-08-05T07:05:15;3.67;;;2.20;;
46971;SDS011;32722;43.486;2.766;2022-08-05T07:07:41;4.57;;;2.40;;
46971;SDS011;32722;43.486;2.766;2022-08-05T07:10:09;4.78;;;2.22;;
46971;SDS011;32722;43.486;2.766;2022-08-05T07:12:35;4.95;;;2.20;;
46971;SDS011;32722;43.486;2.766;2022-08-05T07:15:20;3.45;;;2.20;;
46971;SDS011;32722;43.486;2.766;2022-08-05T07:18:04;2.45;;;2.03;;
46971;SDS011;32722;43.486;2.766;2022-08-05T07:20:30;4.80;;;2.35;;
46971;SDS011;32722;43.486;2.766;2022-08-05T07:22:56;5.32;;;2.55;;
46971;SDS011;32722;43.486;2.766;2022-08-05T07:25:23;3.35;;;2.30;;
46971;SDS011;32722;43.486;2.766;2022-08-05T07:27:49;5.18;;;2.30;;
46971;SDS011;32722;43.486;2.766;2022-08-05T07:30:16;6.88;;;2.63;;
46971;SDS011;32722;43.486;2.766;2022-08-05T07:32:42;5.20;;;2.80;;
46971;SDS011;32722;43.486;2.766;2022-08-05T07:35:11;2.95;;;2.38;;
46971;SDS011;32722;43.486;2.766;2022-08-05T07:37:37;4.43;;;2.08;;
46971;SDS011;32722;43.486;2.766;2022-08-05T07:40:04;3.70;;;2.10;;
46971;SDS011;32722;43.486;2.766;2022-08-05T07:42:31;6.00;;;2.65;;
46971;SDS011;32722;43.486;2.766;2022-08-05T07:44:58;9.85;;;2.40;;
46971;SDS011;32722;43.486;2.766;2022-08-05T07:47:25;2.78;;;2.00;;
46971;SDS011;32722;43.486;2.766;2022-08-05T07:49:51;3.25;;;1.90;;
46971;SDS011;32722;43.486;2.766;2022-08-05T07:52:18;3.75;;;2.13;;
46971;SDS011;32722;43.486;2.766;2022-08-05T07:54:44;10.00;;;2.53;;
46971;SDS011;32722;43.486;2.766;2022-08-05T07:57:10;4.78;;;2.53;;
46971;SDS011;32722;43.486;2.766;2022-08-05T07:59:37;14.52;;;2.90;;
46971;SDS011;32722;43.486;2.766;2022-08-05T08:02:03;5.72;;;2.47;;
46971;SDS011;32722;43.486;2.766;2022-08-05T08:04:31;14.50;;;2.42;;
46971;SDS011;32722;43.486;2.766;2022-08-05T08:06:57;6.03;;;2.30;;
46971;SDS011;32722;43.486;2.766;2022-08-05T08:09:25;4.00;;;2.20;;
46971;SDS011;32722;43.486;2.766;2022-08-05T08:11:52;6.18;;;2.42;;
46971;SDS011;32722;43.486;2.766;2022-08-05T08:14:18;1.85;;;1.73;;
46971;SDS011;32722;43.486;2.766;2022-08-05T08:16:45;5.22;;;2.10;;
46971;SDS011;32722;43.486;2.766;2022-08-05T08:19:11;4.60;;;2.10;;
46971;SDS011;32722;43.486;2.766;2022-08-05T08:21:37;3.55;;;2.10;;
46971;SDS011;32722;43.486;2.766;2022-08-05T08:24:03;2.35;;;1.77;;
46971;SDS011;32722;43.486;2.766;2022-08-05T08:26:30;4.43;;;2.40;;
46971;SDS011;32722;43.486;2.766;2022-08-05T08:28:57;6.85;;;2.22;;
46971;SDS011;32722;43.486;2.766;2022-08-05T08:31:24;3.80;;;2.25;;
46971;SDS011;32722;43.486;2.766;2022-08-05T08:33:50;6.20;;;2.38;;
46971;SDS011;32722;43.486;2.766;2022-08-05T08:36:16;7.07;;;2.38;;
46971;SDS011;32722;43.486;2.766;2022-08-05T08:38:43;4.78;;;2.58;;
46971;SDS011;32722;43.486;2.766;2022-08-05T08:41:09;3.10;;;1.92;;
46971;SDS011;32722;43.486;2.766;2022-08-05T08:43:35;4.93;;;2.22;;
46971;SDS011;32722;43.486;2.766;2022-08-05T08:46:02;2.55;;;2.33;;
46971;SDS011;32722;43.486;2.766;2022-08-05T08:48:29;2.58;;;1.92;;
46971;SDS011;32722;43.486;2.766;2022-08-05T08:50:56;4.97;;;2.58;;
46971;SDS011;32722;43.486;2.766;2022-08-05T08:53:22;5.15;;;2.58;;
46971;SDS011;32722;43.486;2.766;2022-08-05T08:55:49;3.05;;;2.00;;
46971;SDS011;32722;43.486;2.766;2022-08-05T08:58:15;2.55;;;2.30;;
46971;SDS011;32722;43.486;2.766;2022-08-05T09:00:42;3.75;;;2.70;;
46971;SDS011;32722;43.486;2.766;2022-08-05T09:03:09;4.97;;;2.50;;
46971;SDS011;32722;43.486;2.766;2022-08-05T09:05:35;6.05;;;2.58;;
46971;SDS011;32722;43.486;2.766;2022-08-05T09:08:02;4.88;;;2.53;;
46971;SDS011;32722;43.486;2.766;2022-08-05T09:10:28;4.72;;;2.78;;
46971;SDS011;32722;43.486;2.766;2022-08-05T09:12:54;3.40;;;2.50;;
46971;SDS011;32722;43.486;2.766;2022-08-05T09:15:20;3.95;;;2.53;;
46971;SDS011;32722;43.486;2.766;2022-08-05T09:17:47;17.15;;;3.95;;
46971;SDS011;32722;43.486;2.766;2022-08-05T09:20:13;6.53;;;2.50;;
46971;SDS011;32722;43.486;2.766;2022-08-05T09:25:24;5.88;;;2.72;;
46971;SDS011;32722;43.486;2.766;2022-08-05T09:27:50;3.60;;;2.95;;
46971;SDS011;32722;43.486;2.766;2022-08-05T09:30:16;7.75;;;3.38;;
46971;SDS011;32722;43.486;2.766;2022-08-05T09:32:42;2.47;;;2.10;;
46971;SDS011;32722;43.486;2.766;2022-08-05T09:35:09;8.77;;;3.10;;
46971;SDS011;32722;43.486;2.766;2022-08-05T09:37:36;4.53;;;2.85;;
46971;SDS011;32722;43.486;2.766;2022-08-05T09:40:05;4.78;;;2.75;;
46971;SDS011;32722;43.486;2.766;2022-08-05T09:42:40;3.78;;;2.65;;
46971;SDS011;32722;43.486;2.766;2022-08-05T09:45:06;3.70;;;2.55;;
46971;SDS011;32722;43.486;2.766;2022-08-05T09:47:33;6.88;;;5.15;;
46971;SDS011;32722;43.486;2.766;2022-08-05T09:49:59;5.75;;;2.67;;
46971;SDS011;32722;43.486;2.766;2022-08-05T09:52:29;6.38;;;2.42;;
46971;SDS011;32722;43.486;2.766;2022-08-05T09:55:00;4.30;;;2.50;;
46971;SDS011;32722;43.486;2.766;2022-08-05T09:57:30;6.30;;;2.80;;
46971;SDS011;32722;43.486;2.766;2022-08-05T10:00:00;10.18;;;2.70;;
46971;SDS011;32722;43.486;2.766;2022-08-05T10:02:32;3.75;;;2.63;;
46971;SDS011;32722;43.486;2.766;2022-08-05T10:05:02;4.20;;;2.85;;
46971;SDS011;32722;43.486;2.766;2022-08-05T10:07:41;3.65;;;2.65;;
46971;SDS011;32722;43.486;2.766;2022-08-05T10:10:07;5.43;;;2.50;;
46971;SDS011;32722;43.486;2.766;2022-08-05T10:13:07;5.40;;;2.60;;
46971;SDS011;32722;43.486;2.766;2022-08-05T10:15:28;3.80;;;2.45;;
46971;SDS011;32722;43.486;2.766;2022-08-05T10:20:30;4.40;;;2.47;;
46971;SDS011;32722;43.486;2.766;2022-08-05T10:22:56;4.90;;;2.83;;
46971;SDS011;32722;43.486;2.766;2022-08-05T10:25:23;5.82;;;2.50;;
46971;SDS011;32722;43.486;2.766;2022-08-05T10:27:49;4.15;;;2.70;;
46971;SDS011;32722;43.486;2.766;2022-08-05T10:30:17;3.95;;;2.40;;
46971;SDS011;32722;43.486;2.766;2022-08-05T10:32:43;4.63;;;2.95;;
46971;SDS011;32722;43.486;2.766;2022-08-05T10:35:11;4.85;;;2.92;;
46971;SDS011;32722;43.486;2.766;2022-08-05T10:37:37;6.30;;;2.97;;
46971;SDS011;32722;43.486;2.766;2022-08-05T10:40:04;3.65;;;2.70;;
46971;SDS011;32722;43.486;2.766;2022-08-05T10:42:32;5.00;;;2.42;;
46971;SDS011;32722;43.486;2.766;2022-08-05T10:45:03;5.63;;;2.80;;
46971;SDS011;32722;43.486;2.766;2022-08-05T10:47:30;4.47;;;2.90;;
46971;SDS011;32722;43.486;2.766;2022-08-05T10:50:01;6.90;;;3.22;;
46971;SDS011;32722;43.486;2.766;2022-08-05T10:52:36;3.10;;;2.80;;
46971;SDS011;32722;43.486;2.766;2022-08-05T10:55:05;5.78;;;3.05;;
46971;SDS011;32722;43.486;2.766;2022-08-05T10:57:32;4.65;;;3.00;;
46971;SDS011;32722;43.486;2.766;2022-08-05T11:05:25;3.97;;;2.75;;
46971;SDS011;32722;43.486;2.766;2022-08-05T11:07:55;5.85;;;2.42;;
46971;SDS011;32722;43.486;2.766;2022-08-05T11:10:22;8.32;;;3.08;;
46971;SDS011;32722;43.486;2.766;2022-08-05T11:12:48;9.35;;;3.10;;
46971;SDS011;32722;43.486;2.766;2022-08-05T11:17:46;6.38;;;3.33;;
46971;SDS011;32722;43.486;2.766;2022-08-05T11:22:58;4.75;;;3.05;;
46971;SDS011;32722;43.486;2.766;2022-08-05T11:25:28;5.13;;;2.80;;
46971;SDS011;32722;43.486;2.766;2022-08-05T11:28:40;3.25;;;2.90;;
46971;SDS011;32722;43.486;2.766;2022-08-05T11:35:58;9.00;;;2.88;;
46971;SDS011;32722;43.486;2.766;2022-08-05T11:41:06;5.95;;;2.80;;
46971;SDS011;32722;43.486;2.766;2022-08-05T11:43:34;2.95;;;2.72;;
46971;SDS011;32722;43.486;2.766;2022-08-05T11:46:01;6.63;;;2.70;;
46971;SDS011;32722;43.486;2.766;2022-08-05T11:48:27;3.00;;;2.28;;
46971;SDS011;32722;43.486;2.766;2022-08-05T11:50:54;7.13;;;2.65;;
46971;SDS011;32722;43.486;2.766;2022-08-05T11:53:20;8.05;;;3.13;;
46971;SDS011;32722;43.486;2.766;2022-08-05T11:55:54;8.60;;;2.78;;
46971;SDS011;32722;43.486;2.766;2022-08-05T11:58:30;3.28;;;2.40;;
46971;SDS011;32722;43.486;2.766;2022-08-05T12:01:02;6.90;;;2.60;;
46971;SDS011;32722;43.486;2.766;2022-08-05T12:03:29;6.05;;;3.25;;
46971;SDS011;32722;43.486;2.766;2022-08-05T12:06:02;5.47;;;2.63;;
46971;SDS011;32722;43.486;2.766;2022-08-05T12:08:28;6.65;;;3.00;;
46971;SDS011;32722;43.486;2.766;2022-08-05T12:10:55;4.57;;;2.78;;
46971;SDS011;32722;43.486;2.766;2022-08-05T12:13:23;3.38;;;2.28;;
46971;SDS011;32722;43.486;2.766;2022-08-05T12:15:49;5.05;;;2.53;;
46971;SDS011;32722;43.486;2.766;2022-08-05T12:18:16;5.13;;;3.30;;
46971;SDS011;32722;43.486;2.766;2022-08-05T12:20:43;2.92;;;2.60;;
46971;SDS011;32722;43.486;2.766;2022-08-05T12:23:09;5.22;;;2.38;;
46971;SDS011;32722;43.486;2.766;2022-08-05T12:25:51;4.97;;;2.90;;
46971;SDS011;32722;43.486;2.766;2022-08-05T12:28:32;13.80;;;2.80;;
46971;SDS011;32722;43.486;2.766;2022-08-05T12:30:59;4.68;;;2.63;;
46971;SDS011;32722;43.486;2.766;2022-08-05T12:33:25;4.05;;;2.83;;
46971;SDS011;32722;43.486;2.766;2022-08-05T12:35:52;6.13;;;3.05;;
46971;SDS011;32722;43.486;2.766;2022-08-05T12:38:18;3.70;;;2.67;;
46971;SDS011;32722;43.486;2.766;2022-08-05T12:40:45;5.20;;;2.60;;
46971;SDS011;32722;43.486;2.766;2022-08-05T12:43:12;9.27;;;2.88;;
46971;SDS011;32722;43.486;2.766;2022-08-05T12:45:51;4.40;;;2.57;;
46971;SDS011;32722;43.486;2.766;2022-08-05T12:48:17;3.75;;;2.60;;
46971;SDS011;32722;43.486;2.766;2022-08-05T12:50:44;6.80;;;2.75;;
46971;SDS011;32722;43.486;2.766;2022-08-05T12:53:29;4.40;;;2.70;;
46971;SDS011;32722;43.486;2.766;2022-08-05T12:55:55;4.50;;;2.63;;
46971;SDS011;32722;43.486;2.766;2022-08-05T12:58:22;4.53;;;2.38;;
46971;SDS011;32722;43.486;2.766;2022-08-05T13:00:48;6.05;;;3.08;;
46971;SDS011;32722;43.486;2.766;2022-08-05T13:03:15;4.35;;;2.63;;
46971;SDS011;32722;43.486;2.766;2022-08-05T13:05:41;8.55;;;3.00;;
46971;SDS011;32722;43.486;2.766;2022-08-05T13:08:07;7.75;;;3.33;;
46971;SDS011;32722;43.486;2.766;2022-08-05T13:10:34;3.40;;;2.35;;
46971;SDS011;32722;43.486;2.766;2022-08-05T13:13:07;2.67;;;2.28;;
46971;SDS011;32722;43.486;2.766;2022-08-05T13:15:34;4.93;;;2.90;;
46971;SDS011;32722;43.486;2.766;2022-08-05T13:18:00;4.60;;;2.85;;
46971;SDS011;32722;43.486;2.766;2022-08-05T13:20:33;4.80;;;2.60;;
46971;SDS011;32722;43.486;2.766;2022-08-05T13:23:00;6.38;;;2.90;;
46971;SDS011;32722;43.486;2.766;2022-08-05T13:25:26;5.22;;;2.45;;
46971;SDS011;32722;43.486;2.766;2022-08-05T13:27:54;4.32;;;2.50;;
46971;SDS011;32722;43.486;2.766;2022-08-05T13:30:22;7.18;;;3.03;;
46971;SDS011;32722;43.486;2.766;2022-08-05T13:32:50;3.97;;;2.75;;
46971;SDS011;32722;43.486;2.766;2022-08-05T13:35:17;4.85;;;2.40;;
46971;SDS011;32722;43.486;2.766;2022-08-05T13:37:44;3.20;;;2.35;;
46971;SDS011;32722;43.486;2.766;2022-08-05T13:40:11;5.78;;;2.60;;
46971;SDS011;32722;43.486;2.766;2022-08-05T13:42:37;2.70;;;2.10;;
46971;SDS011;32722;43.486;2.766;2022-08-05T13:45:04;4.20;;;2.30;;
46971;SDS011;32722;43.486;2.766;2022-08-05T13:47:32;4.40;;;2.30;;
46971;SDS011;32722;43.486;2.766;2022-08-05T13:50:02;4.00;;;2.75;;
46971;SDS011;32722;43.486;2.766;2022-08-05T13:52:29;5.07;;;2.78;;
46971;SDS011;32722;43.486;2.766;2022-08-05T13:54:55;5.60;;;2.70;;
46971;SDS011;32722;43.486;2.766;2022-08-05T13:57:22;9.15;;;2.63;;
46971;SDS011;32722;43.486;2.766;2022-08-05T13:59:48;5.80;;;2.60;;
46971;SDS011;32722;43.486;2.766;2022-08-05T14:02:14;4.30;;;2.50;;
46971;SDS011;32722;43.486;2.766;2022-08-05T14:04:43;5.97;;;2.75;;
46971;SDS011;32722;43.486;2.766;2022-08-05T14:07:29;5.13;;;2.50;;
46971;SDS011;32722;43.486;2.766;2022-08-05T14:09:55;5.72;;;2.20;;
46971;SDS011;32722;43.486;2.766;2022-08-05T14:12:22;7.00;;;3.17;;
46971;SDS011;32722;43.486;2.766;2022-08-05T14:14:48;4.75;;;2.33;;
46971;SDS011;32722;43.486;2.766;2022-08-05T14:17:14;5.15;;;2.33;;
46971;SDS011;32722;43.486;2.766;2022-08-05T14:19:41;5.68;;;2.47;;
46971;SDS011;32722;43.486;2.766;2022-08-05T14:22:09;3.45;;;2.28;;
46971;SDS011;32722;43.486;2.766;2022-08-05T14:24:36;4.43;;;2.60;;
46971;SDS011;32722;43.486;2.766;2022-08-05T14:27:04;4.07;;;2.03;;
46971;SDS011;32722;43.486;2.766;2022-08-05T14:29:30;6.38;;;2.70;;
46971;SDS011;32722;43.486;2.766;2022-08-05T14:31:56;6.72;;;2.50;;
46971;SDS011;32722;43.486;2.766;2022-08-05T14:34:22;5.30;;;2.28;;
46971;SDS011;32722;43.486;2.766;2022-08-05T14:36:49;6.57;;;2.90;;
46971;SDS011;32722;43.486;2.766;2022-08-05T14:39:15;3.22;;;2.72;;
46971;SDS011;32722;43.486;2.766;2022-08-05T14:41:41;4.50;;;2.42;;
46971;SDS011;32722;43.486;2.766;2022-08-05T14:44:07;6.50;;;2.95;;
46971;SDS011;32722;43.486;2.766;2022-08-05T14:46:34;4.30;;;2.20;;
46971;SDS011;32722;43.486;2.766;2022-08-05T14:49:01;5.22;;;2.67;;
46971;SDS011;32722;43.486;2.766;2022-08-05T14:51:27;5.88;;;2.80;;
46971;SDS011;32722;43.486;2.766;2022-08-05T14:53:54;5.28;;;2.20;;
46971;SDS011;32722;43.486;2.766;2022-08-05T14:56:20;6.03;;;2.70;;
46971;SDS011;32722;43.486;2.766;2022-08-05T14:58:46;7.00;;;2.78;;
46971;SDS011;32722;43.486;2.766;2022-08-05T15:01:12;5.63;;;2.85;;
46971;SDS011;32722;43.486;2.766;2022-08-05T15:03:39;5.90;;;2.78;;
46971;SDS011;32722;43.486;2.766;2022-08-05T15:06:05;6.43;;;2.70;;
46971;SDS011;32722;43.486;2.766;2022-08-05T15:08:31;6.28;;;2.70;;
46971;SDS011;32722;43.486;2.766;2022-08-05T15:10:58;8.30;;;3.60;;
46971;SDS011;32722;43.486;2.766;2022-08-05T15:13:24;6.70;;;3.10;;
46971;SDS011;32722;43.486;2.766;2022-08-05T15:15:50;6.78;;;2.50;;
46971;SDS011;32722;43.486;2.766;2022-08-05T15:18:16;5.82;;;2.72;;
46971;SDS011;32722;43.486;2.766;2022-08-05T15:20:42;6.07;;;2.47;;
46971;SDS011;32722;43.486;2.766;2022-08-05T15:23:09;5.32;;;2.67;;
46971;SDS011;32722;43.486;2.766;2022-08-05T15:25:36;8.80;;;2.38;;
46971;SDS011;32722;43.486;2.766;2022-08-05T15:28:02;7.00;;;2.90;;
46971;SDS011;32722;43.486;2.766;2022-08-05T15:30:29;3.42;;;2.30;;
46971;SDS011;32722;43.486;2.766;2022-08-05T15:33:00;9.18;;;2.72;;
46971;SDS011;32722;43.486;2.766;2022-08-05T15:35:26;5.32;;;3.17;;
46971;SDS011;32722;43.486;2.766;2022-08-05T15:37:52;3.88;;;2.28;;
46971;SDS011;32722;43.486;2.766;2022-08-05T15:40:19;2.60;;;1.83;;
46971;SDS011;32722;43.486;2.766;2022-08-05T15:42:45;5.55;;;2.50;;
46971;SDS011;32722;43.486;2.766;2022-08-05T15:45:11;7.10;;;2.20;;
46971;SDS011;32722;43.486;2.766;2022-08-05T15:47:38;6.03;;;2.45;;
46971;SDS011;32722;43.486;2.766;2022-08-05T15:50:04;4.35;;;2.50;;
46971;SDS011;32722;43.486;2.766;2022-08-05T15:52:31;3.47;;;2.42;;
46971;SDS011;32722;43.486;2.766;2022-08-05T15:54:57;4.18;;;2.67;;